createdAt,value
2022-12-23T00:00:34.993Z,1.06
2022-12-23T00:01:38.700Z,1.05
2022-12-23T00:02:46.178Z,1.04
2022-12-23T00:03:49.753Z,1.00
2022-12-23T00:04:55.891Z,0.98
2022-12-23T00:06:00.365Z,1.06
2022-12-23T00:07:06.523Z,1.07
2022-12-23T00:08:10.767Z,0.99
2022-12-23T00:09:17.245Z,1.00
2022-12-23T00:10:23.585Z,0.90
2022-12-23T00:11:31.705Z,1.00
2022-12-23T00:12:50.049Z,0.98
2022-12-23T00:14:16.277Z,1.05
2022-12-23T00:15:23.744Z,1.05
2022-12-23T00:16:30.180Z,1.07
2022-12-23T00:17:34.655Z,1.10
2022-12-23T00:18:41.701Z,1.10
2022-12-23T00:19:46.127Z,1.04
2022-12-23T00:20:52.071Z,1.05
2022-12-23T00:21:55.513Z,1.01
2022-12-23T00:23:10.348Z,1.12
2022-12-23T00:24:13.757Z,1.10
2022-12-23T00:25:20.871Z,1.07
2022-12-23T00:26:31.264Z,1.05
2022-12-23T00:27:37.696Z,1.03
2022-12-23T00:28:44.002Z,1.04
2022-12-23T00:29:47.297Z,1.03
2022-12-23T00:30:57.708Z,1.01
2022-12-23T00:32:01.192Z,1.11
2022-12-23T00:33:07.840Z,1.05
2022-12-23T00:34:12.699Z,1.05
2022-12-23T00:35:18.885Z,1.11
2022-12-23T00:36:30.198Z,1.17
2022-12-23T00:37:33.722Z,1.14
2022-12-23T00:38:52.243Z,1.05
2022-12-23T00:40:10.510Z,1.14
2022-12-23T00:41:32.563Z,1.16
2022-12-23T00:42:57.261Z,1.15
2022-12-23T00:44:01.092Z,1.04
2022-12-23T00:45:18.302Z,0.99
2022-12-23T00:46:24.324Z,0.96
2022-12-23T00:47:42.632Z,0.84
2022-12-23T00:49:01.737Z,0.73
2022-12-23T00:50:06.283Z,0.80
2022-12-23T00:51:12.248Z,0.83
2022-12-23T00:52:16.332Z,0.89
2022-12-23T00:53:23.425Z,0.91
2022-12-23T00:54:27.700Z,0.89
2022-12-23T00:55:34.025Z,0.91
2022-12-23T00:56:37.549Z,0.99
2022-12-23T00:57:46.127Z,1.00
2022-12-23T00:58:49.449Z,1.02
2022-12-23T00:59:56.397Z,0.99
2022-12-23T01:01:14.779Z,1.02
2022-12-23T01:02:33.239Z,0.99
2022-12-23T01:03:51.680Z,0.93
2022-12-23T01:05:25.771Z,0.89
2022-12-23T01:06:31.787Z,0.95
2022-12-23T01:07:35.252Z,0.92
2022-12-23T01:08:41.373Z,0.98
2022-12-23T01:09:45.048Z,1.03
2022-12-23T01:10:51.871Z,0.99
2022-12-23T01:11:56.003Z,0.99
2022-12-23T01:13:04.738Z,1.01
2022-12-23T01:14:09.573Z,1.05
2022-12-23T01:15:15.523Z,1.02
2022-12-23T01:16:19.820Z,1.03
2022-12-23T01:17:25.890Z,1.00
2022-12-23T01:18:29.614Z,1.04
2022-12-23T01:19:35.673Z,1.09
2022-12-23T01:20:39.153Z,1.07
2022-12-23T01:21:46.076Z,1.06
2022-12-23T01:22:49.954Z,0.98
2022-12-23T01:23:55.946Z,0.92
2022-12-23T01:24:59.362Z,0.88
2022-12-23T01:26:09.128Z,0.85
2022-12-23T01:27:13.359Z,0.85
2022-12-23T01:28:22.005Z,0.78
2022-12-23T01:29:25.781Z,0.82
2022-12-23T01:30:31.694Z,0.81
2022-12-23T01:31:35.409Z,0.85
2022-12-23T01:32:42.360Z,0.82
2022-12-23T01:33:46.303Z,0.85
2022-12-23T01:34:52.258Z,0.79
2022-12-23T01:36:00.943Z,0.79
2022-12-23T01:37:06.952Z,0.75
2022-12-23T01:38:11.282Z,0.74
2022-12-23T01:39:17.307Z,0.69
2022-12-23T01:40:20.874Z,0.64
2022-12-23T01:41:43.028Z,0.62
2022-12-23T01:42:49.085Z,0.65
2022-12-23T01:43:55.872Z,0.62
2022-12-23T01:45:02.332Z,0.62
2022-12-23T01:46:08.498Z,0.67
2022-12-23T01:47:20.551Z,0.61
2022-12-23T01:48:30.521Z,0.63
2022-12-23T01:49:34.828Z,0.60
2022-12-23T01:50:48.170Z,0.61
2022-12-23T01:51:51.946Z,0.58
2022-12-23T01:53:08.696Z,0.59
2022-12-23T01:54:12.413Z,0.67
2022-12-23T01:55:26.942Z,0.62
2022-12-23T01:56:38.178Z,0.66
2022-12-23T01:57:48.117Z,0.70
2022-12-23T01:59:02.477Z,0.71
2022-12-23T02:00:23.769Z,0.76
2022-12-23T02:01:45.042Z,0.75
2022-12-23T02:03:08.023Z,0.75
2022-12-23T02:04:21.961Z,0.68
2022-12-23T02:05:25.696Z,0.69
2022-12-23T02:06:52.028Z,0.65
2022-12-23T02:08:11.683Z,0.70
2022-12-23T02:09:21.184Z,0.71
2022-12-23T02:10:44.521Z,0.74
2022-12-23T02:12:32.392Z,0.70
2022-12-23T02:14:06.870Z,0.54
2022-12-23T02:15:49.418Z,0.70
2022-12-23T02:17:12.634Z,0.72
2022-12-23T02:18:44.899Z,0.73
2022-12-23T02:20:39.322Z,0.66
2022-12-23T02:22:18.095Z,0.71
2022-12-23T02:24:27.702Z,0.75
2022-12-23T02:26:11.432Z,0.74
2022-12-23T02:27:30.127Z,0.74
2022-12-23T02:29:19.555Z,0.73
2022-12-23T02:30:51.531Z,0.69
2022-12-23T02:32:08.972Z,0.69
2022-12-23T02:33:39.635Z,0.76
2022-12-23T02:34:56.210Z,0.80
2022-12-23T02:36:25.495Z,0.80
2022-12-23T02:37:42.982Z,0.82
2022-12-23T02:39:05.024Z,0.83
2022-12-23T02:40:24.860Z,0.81
2022-12-23T02:41:45.655Z,0.84
2022-12-23T02:43:02.917Z,0.80
2022-12-23T02:44:23.829Z,0.77
2022-12-23T02:45:41.652Z,0.78
2022-12-23T02:46:57.565Z,0.79
2022-12-23T02:48:09.380Z,0.85
2022-12-23T02:49:24.454Z,0.84
2022-12-23T02:50:37.407Z,0.84
2022-12-23T02:51:53.254Z,0.80
2022-12-23T02:53:06.597Z,0.79
2022-12-23T02:54:20.263Z,0.80
2022-12-23T02:55:35.640Z,0.74
2022-12-23T02:56:50.276Z,0.79
2022-12-23T02:58:00.461Z,0.85
2022-12-23T02:59:16.124Z,0.83
2022-12-23T03:00:21.471Z,0.86
2022-12-23T03:01:36.117Z,0.88
2022-12-23T03:02:45.145Z,0.84
2022-12-23T03:03:54.797Z,0.89
2022-12-23T03:05:00.851Z,0.83
2022-12-23T03:06:24.374Z,0.88
2022-12-23T03:07:43.207Z,0.87
2022-12-23T03:08:50.461Z,0.87
2022-12-23T03:10:08.917Z,0.89
2022-12-23T03:11:19.153Z,0.98
2022-12-23T03:12:42.148Z,0.91
2022-12-23T03:14:23.749Z,0.91
2022-12-23T03:15:47.505Z,0.97
2022-12-23T03:17:08.838Z,0.96
2022-12-23T03:18:34.158Z,0.99
2022-12-23T03:19:56.678Z,0.94
2022-12-23T03:21:13.484Z,0.95
2022-12-23T03:22:32.573Z,0.98
2022-12-23T03:23:55.196Z,0.91
2022-12-23T03:25:17.014Z,0.90
2022-12-23T03:26:28.497Z,0.96
2022-12-23T03:27:43.364Z,0.95
2022-12-23T03:28:54.751Z,0.95
2022-12-23T03:30:10.063Z,0.95
2022-12-23T03:31:27.761Z,0.93
2022-12-23T03:32:40.524Z,1.02
2022-12-23T03:33:59.389Z,0.98
2022-12-23T03:35:10.756Z,1.01
2022-12-23T03:36:27.848Z,0.97
2022-12-23T03:37:39.253Z,0.99
2022-12-23T03:38:48.876Z,0.98
2022-12-23T03:40:04.110Z,1.01
2022-12-23T03:41:20.070Z,1.05
2022-12-23T03:42:32.175Z,1.07
2022-12-23T03:43:51.065Z,1.03
2022-12-23T03:45:36.960Z,1.03
2022-12-23T03:46:40.635Z,1.07
2022-12-23T03:47:55.541Z,1.10
2022-12-23T03:49:12.316Z,1.03
2022-12-23T03:50:23.228Z,1.03
2022-12-23T03:51:37.283Z,1.04
2022-12-23T03:52:50.033Z,1.01
2022-12-23T03:54:04.719Z,1.03
2022-12-23T03:55:19.439Z,1.01
2022-12-23T03:56:36.091Z,1.04
2022-12-23T03:57:48.381Z,1.02
2022-12-23T03:59:03.927Z,1.07
2022-12-23T04:00:12.303Z,1.02
2022-12-23T04:01:34.930Z,1.01
2022-12-23T04:02:54.150Z,1.02
2022-12-23T04:04:14.298Z,1.02
2022-12-23T04:05:30.559Z,0.98
2022-12-23T04:06:50.814Z,0.96
2022-12-23T04:08:04.115Z,0.94
2022-12-23T04:09:21.851Z,0.91
2022-12-23T04:10:30.942Z,0.85
2022-12-23T04:11:37.370Z,0.89
2022-12-23T04:12:44.784Z,0.77
2022-12-23T04:13:49.421Z,0.81
2022-12-23T04:14:55.820Z,0.77
2022-12-23T04:16:02.243Z,0.65
2022-12-23T04:17:08.338Z,0.71
2022-12-23T04:18:12.436Z,0.71
2022-12-23T04:19:21.137Z,0.66
2022-12-23T04:20:25.353Z,0.61
2022-12-23T04:21:32.186Z,0.56
2022-12-23T04:22:35.715Z,0.54
2022-12-23T04:23:41.657Z,0.55
2022-12-23T04:24:45.363Z,0.47
2022-12-23T04:25:51.396Z,0.66
2022-12-23T04:26:55.748Z,0.61
2022-12-23T04:28:01.907Z,0.64
2022-12-23T04:29:05.511Z,0.70
2022-12-23T04:30:16.283Z,0.66
2022-12-23T04:31:19.706Z,0.70
2022-12-23T04:32:26.979Z,0.66
2022-12-23T04:33:30.917Z,0.72
2022-12-23T04:34:39.998Z,0.74
2022-12-23T04:35:43.451Z,0.79
2022-12-23T04:36:49.414Z,0.75
2022-12-23T04:37:53.636Z,0.74
2022-12-23T04:38:59.732Z,0.77
2022-12-23T04:40:04.221Z,0.75
2022-12-23T04:41:10.345Z,0.78
2022-12-23T04:42:13.873Z,0.82
2022-12-23T04:43:20.845Z,0.79
2022-12-23T04:44:24.196Z,0.73
2022-12-23T04:45:30.186Z,0.73
2022-12-23T04:46:33.645Z,0.76
2022-12-23T04:47:40.849Z,0.71
2022-12-23T04:48:45.364Z,0.71
2022-12-23T04:49:53.962Z,0.73
2022-12-23T04:50:57.304Z,0.70
2022-12-23T04:52:03.720Z,0.70
2022-12-23T04:53:07.093Z,0.70
2022-12-23T04:54:13.898Z,0.74
2022-12-23T04:55:17.675Z,0.80
2022-12-23T04:56:23.695Z,0.78
2022-12-23T04:57:27.081Z,0.81
2022-12-23T04:58:33.130Z,0.81
2022-12-23T04:59:37.373Z,0.91
2022-12-23T05:00:43.445Z,0.87
2022-12-23T05:01:47.263Z,0.89
2022-12-23T05:02:53.570Z,0.89
2022-12-23T05:03:57.140Z,0.94
2022-12-23T05:05:07.156Z,0.95
2022-12-23T05:06:11.274Z,0.98
2022-12-23T05:07:17.335Z,0.96
2022-12-23T05:08:20.920Z,0.97
2022-12-23T05:09:27.240Z,0.98
2022-12-23T05:10:32.206Z,1.02
2022-12-23T05:11:42.111Z,0.97
2022-12-23T05:12:45.929Z,0.97
2022-12-23T05:13:51.890Z,1.02
2022-12-23T05:14:55.339Z,1.04
2022-12-23T05:16:02.747Z,1.03
2022-12-23T05:17:08.036Z,0.98
2022-12-23T05:18:14.623Z,1.01
2022-12-23T05:19:18.018Z,1.00
2022-12-23T05:20:26.596Z,1.03
2022-12-23T05:21:30.943Z,1.01
2022-12-23T05:22:36.891Z,1.02
2022-12-23T05:23:40.590Z,1.00
2022-12-23T05:24:47.167Z,0.99
2022-12-23T05:25:53.078Z,1.04
2022-12-23T05:27:00.652Z,1.00
2022-12-23T05:28:04.564Z,1.07
2022-12-23T05:29:10.567Z,1.06
2022-12-23T05:30:14.262Z,1.04
2022-12-23T05:31:20.641Z,1.12
2022-12-23T05:32:24.835Z,1.14
2022-12-23T05:33:31.676Z,1.16
2022-12-23T05:34:35.283Z,1.13
2022-12-23T05:35:44.051Z,1.21
2022-12-23T05:36:50.124Z,1.25
2022-12-23T05:37:54.761Z,1.29
2022-12-23T05:39:00.758Z,1.32
2022-12-23T05:40:05.223Z,1.33
2022-12-23T05:41:11.562Z,1.40
2022-12-23T05:42:19.519Z,1.35
2022-12-23T05:43:27.072Z,1.35
2022-12-23T05:44:30.608Z,1.33
2022-12-23T05:45:39.850Z,1.32
2022-12-23T05:46:43.346Z,1.29
2022-12-23T05:47:49.387Z,1.29
2022-12-23T05:48:53.606Z,1.29
2022-12-23T05:49:59.584Z,1.29
2022-12-23T05:51:06.183Z,1.27
2022-12-23T05:52:12.188Z,1.27
2022-12-23T05:53:15.649Z,1.29
2022-12-23T05:54:22.471Z,1.34
2022-12-23T05:55:27.472Z,1.36
2022-12-23T05:56:33.448Z,1.35
2022-12-23T05:57:36.814Z,1.42
2022-12-23T05:58:42.780Z,1.41
2022-12-23T05:59:46.926Z,1.36
2022-12-23T06:00:53.002Z,1.33
2022-12-23T06:01:59.117Z,1.36
2022-12-23T06:03:02.759Z,1.30
2022-12-23T06:04:09.119Z,1.34
2022-12-23T06:05:13.939Z,1.35
2022-12-23T06:06:22.528Z,1.34
2022-12-23T06:07:25.951Z,1.31
2022-12-23T06:08:34.268Z,1.26
2022-12-23T06:09:37.691Z,1.25
2022-12-23T06:10:44.551Z,1.12
2022-12-23T06:11:47.950Z,1.17
2022-12-23T06:12:53.998Z,1.07
2022-12-23T06:13:57.447Z,1.04
2022-12-23T06:15:03.588Z,0.97
2022-12-23T06:16:11.035Z,0.91
2022-12-23T06:17:14.566Z,0.82
2022-12-23T06:18:20.818Z,0.76
2022-12-23T06:19:24.294Z,0.76
2022-12-23T06:20:30.591Z,0.72
2022-12-23T06:21:37.484Z,0.76
2022-12-23T06:22:43.413Z,0.73
2022-12-23T06:23:49.410Z,0.68
2022-12-23T06:24:52.846Z,0.67
2022-12-23T06:26:02.915Z,0.68
2022-12-23T06:27:07.399Z,0.74
2022-12-23T06:28:13.393Z,0.71
2022-12-23T06:29:16.725Z,0.75
2022-12-23T06:30:23.226Z,0.70
2022-12-23T06:31:26.640Z,0.75
2022-12-23T06:32:38.220Z,0.74
2022-12-23T06:33:42.222Z,0.71
2022-12-23T06:34:49.880Z,0.68
2022-12-23T06:35:53.240Z,0.72
2022-12-23T06:37:02.075Z,0.72
2022-12-23T06:38:11.664Z,0.72
2022-12-23T06:39:18.138Z,0.73
2022-12-23T06:40:21.786Z,0.69
2022-12-23T06:41:27.735Z,0.71
2022-12-23T06:42:31.110Z,0.76
2022-12-23T06:43:37.922Z,0.74
2022-12-23T06:44:41.352Z,0.67
2022-12-23T06:45:50.632Z,0.80
2022-12-23T06:46:54.120Z,0.79
2022-12-23T06:48:00.128Z,0.85
2022-12-23T06:49:10.943Z,0.89
2022-12-23T06:50:19.279Z,0.95
2022-12-23T06:51:25.653Z,0.90
2022-12-23T06:52:31.726Z,0.98
2022-12-23T06:53:37.700Z,1.01
2022-12-23T06:54:42.023Z,1.03
2022-12-23T06:55:48.351Z,1.02
2022-12-23T06:56:51.796Z,1.00
2022-12-23T06:57:57.716Z,0.98
2022-12-23T06:59:01.267Z,0.95
2022-12-23T07:00:09.808Z,0.97
2022-12-23T07:01:13.258Z,0.93
2022-12-23T07:02:19.455Z,0.96
2022-12-23T07:03:23.356Z,0.94
2022-12-23T07:04:29.369Z,0.98
2022-12-23T07:05:37.395Z,0.97
2022-12-23T07:06:44.302Z,0.91
2022-12-23T07:07:50.407Z,1.04
2022-12-23T07:08:56.477Z,1.11
2022-12-23T07:10:00.188Z,1.10
2022-12-23T07:11:08.741Z,1.13
2022-12-23T07:12:12.195Z,1.15
2022-12-23T07:13:18.678Z,1.14
2022-12-23T07:14:22.108Z,1.16
2022-12-23T07:15:28.246Z,1.21
2022-12-23T07:16:32.746Z,1.26
2022-12-23T07:17:39.087Z,1.26
2022-12-23T07:18:42.651Z,1.25
2022-12-23T07:19:48.666Z,1.22
2022-12-23T07:20:55.385Z,1.20
2022-12-23T07:21:59.704Z,1.24
2022-12-23T07:23:08.507Z,1.28
2022-12-23T07:24:12.305Z,1.23
2022-12-23T07:25:18.771Z,1.29
2022-12-23T07:26:22.276Z,1.31
2022-12-23T07:27:29.116Z,1.32
2022-12-23T07:28:32.511Z,1.31
2022-12-23T07:29:38.512Z,1.39
2022-12-23T07:30:43.947Z,1.36
2022-12-23T07:31:50.014Z,1.39
2022-12-23T07:32:54.434Z,1.44
2022-12-23T07:34:00.535Z,1.44
2022-12-23T07:35:04.590Z,1.45
2022-12-23T07:36:11.805Z,1.42
2022-12-23T07:37:15.267Z,1.41
2022-12-23T07:38:24.853Z,1.50
2022-12-23T07:39:28.766Z,1.54
2022-12-23T07:40:34.807Z,1.52
2022-12-23T07:41:38.176Z,1.54
2022-12-23T07:42:46.852Z,1.60
2022-12-23T07:43:51.485Z,1.65
2022-12-23T07:44:57.446Z,1.57
2022-12-23T07:46:10.359Z,1.54
2022-12-23T07:47:15.713Z,1.58
2022-12-23T07:48:21.765Z,1.57
2022-12-23T07:49:26.059Z,1.57
2022-12-23T07:50:32.048Z,1.57
2022-12-23T07:51:35.437Z,1.51
2022-12-23T07:52:41.575Z,1.55
2022-12-23T07:53:52.960Z,1.55
2022-12-23T07:54:57.227Z,1.56
2022-12-23T07:56:03.254Z,1.62
2022-12-23T07:57:09.287Z,1.65
2022-12-23T07:58:15.275Z,1.71
2022-12-23T07:59:22.092Z,1.71
2022-12-23T08:00:26.588Z,1.69
2022-12-23T08:01:32.701Z,1.71
2022-12-23T08:02:36.535Z,1.77
2022-12-23T08:03:42.663Z,1.69
2022-12-23T08:04:46.733Z,1.68
2022-12-23T08:06:03.891Z,1.72
2022-12-23T08:07:09.920Z,1.61
2022-12-23T08:08:13.388Z,1.56
2022-12-23T08:09:22.052Z,1.58
2022-12-23T08:10:25.559Z,1.61
2022-12-23T08:11:32.592Z,1.59
2022-12-23T08:12:36.140Z,1.56
2022-12-23T08:13:44.975Z,1.62
2022-12-23T08:14:49.100Z,1.57
2022-12-23T08:15:59.162Z,1.55
2022-12-23T08:17:06.132Z,1.56
2022-12-23T08:18:12.231Z,1.58
2022-12-23T08:19:18.257Z,1.62
2022-12-23T08:20:24.312Z,1.64
2022-12-23T08:21:27.700Z,1.68
2022-12-23T08:22:34.934Z,1.72
2022-12-23T08:23:38.339Z,1.58
2022-12-23T08:24:47.190Z,1.70
2022-12-23T08:25:50.594Z,1.59
2022-12-23T08:26:57.438Z,1.66
2022-12-23T08:28:01.672Z,1.61
2022-12-23T08:29:09.902Z,1.66
2022-12-23T08:30:17.227Z,1.61
2022-12-23T08:31:24.195Z,1.49
2022-12-23T08:32:31.319Z,1.68
2022-12-23T08:33:36.962Z,1.71
2022-12-23T08:34:43.227Z,1.71
2022-12-23T08:35:46.663Z,1.75
2022-12-23T08:36:52.773Z,1.68
2022-12-23T08:37:56.182Z,1.69
2022-12-23T08:39:07.678Z,1.68
2022-12-23T08:40:16.754Z,1.64
2022-12-23T08:41:25.889Z,1.67
2022-12-23T08:42:31.965Z,1.62
2022-12-23T08:43:36.177Z,1.69
2022-12-23T08:44:43.248Z,1.71
2022-12-23T08:45:49.384Z,1.69
2022-12-23T08:46:52.886Z,1.71
2022-12-23T08:47:58.939Z,1.70
2022-12-23T08:49:05.392Z,1.75
2022-12-23T08:50:12.793Z,1.79
2022-12-23T08:51:19.325Z,1.83
2022-12-23T08:52:25.544Z,1.89
2022-12-23T08:53:29.389Z,1.95
2022-12-23T08:54:35.450Z,1.84
2022-12-23T08:55:45.611Z,1.83
2022-12-23T08:56:51.687Z,1.81
2022-12-23T08:57:55.413Z,1.91
2022-12-23T08:59:02.726Z,1.89
2022-12-23T09:00:08.623Z,1.86
2022-12-23T09:01:19.278Z,1.85
2022-12-23T09:02:25.527Z,1.89
2022-12-23T09:03:29.076Z,1.95
2022-12-23T09:04:35.207Z,1.95
2022-12-23T09:05:42.239Z,2.02
2022-12-23T09:06:49.320Z,2.05
2022-12-23T09:07:52.941Z,2.07
2022-12-23T09:08:59.536Z,2.07
2022-12-23T09:10:06.023Z,2.08
2022-12-23T09:11:19.557Z,2.05
2022-12-23T09:12:26.540Z,2.05
2022-12-23T09:13:35.935Z,2.05
2022-12-23T09:14:42.188Z,2.15
2022-12-23T09:15:46.306Z,2.14
2022-12-23T09:16:54.837Z,2.09
2022-12-23T09:17:59.058Z,2.12
2022-12-23T09:19:05.137Z,2.12
2022-12-23T09:20:11.039Z,2.15
2022-12-23T09:21:21.199Z,2.15
2022-12-23T09:22:27.325Z,2.17
2022-12-23T09:23:32.534Z,2.23
2022-12-23T09:24:38.775Z,2.22
2022-12-23T09:25:42.243Z,2.27
2022-12-23T09:26:51.081Z,2.19
2022-12-23T09:27:54.637Z,2.24
2022-12-23T09:29:01.799Z,2.35
2022-12-23T09:30:07.639Z,2.41
2022-12-23T09:31:16.598Z,2.44
2022-12-23T09:32:22.746Z,2.39
2022-12-23T09:33:26.453Z,2.39
2022-12-23T09:34:33.485Z,2.32
2022-12-23T09:36:02.345Z,2.35
2022-12-23T09:37:08.503Z,2.34
2022-12-23T09:38:12.099Z,2.42
2022-12-23T09:39:18.133Z,2.41
2022-12-23T09:40:26.232Z,2.42
2022-12-23T09:42:08.434Z,2.44
2022-12-23T09:43:32.887Z,2.53
2022-12-23T09:45:02.869Z,2.64
2022-12-23T09:46:22.065Z,2.73
2022-12-23T09:47:31.020Z,2.88
2022-12-23T09:48:46.305Z,2.92
2022-12-23T09:49:58.309Z,2.78
2022-12-23T09:51:09.792Z,2.89
2022-12-23T09:52:28.515Z,2.99
2022-12-23T09:53:53.475Z,3.13
2022-12-23T09:55:00.960Z,3.20
2022-12-23T09:56:22.076Z,3.22
2022-12-23T09:57:46.015Z,3.29
2022-12-23T09:59:06.339Z,3.22
2022-12-23T10:00:20.383Z,3.23
2022-12-23T10:01:44.617Z,3.36
2022-12-23T10:03:18.377Z,3.42
2022-12-23T10:04:45.878Z,3.43
2022-12-23T10:06:10.974Z,3.51
2022-12-23T10:07:38.191Z,3.52
2022-12-23T10:08:50.409Z,3.60
2022-12-23T10:10:01.796Z,3.74
2022-12-23T10:11:22.275Z,3.93
2022-12-23T10:12:42.076Z,4.00
2022-12-23T10:13:57.207Z,3.82
2022-12-23T10:15:21.985Z,3.81
2022-12-23T10:16:37.503Z,3.88
2022-12-23T10:17:43.889Z,3.91
2022-12-23T10:19:00.625Z,3.75
2022-12-23T10:20:14.759Z,3.90
2022-12-23T10:21:33.347Z,3.92
2022-12-23T10:22:44.547Z,4.06
2022-12-23T10:23:57.271Z,4.02
2022-12-23T10:25:13.411Z,4.04
2022-12-23T10:26:28.649Z,3.98
2022-12-23T10:27:41.543Z,4.03
2022-12-23T10:28:47.884Z,4.02
2022-12-23T10:29:52.284Z,4.04
2022-12-23T10:32:58.240Z,3.97
2022-12-23T10:34:18.191Z,3.82
2022-12-23T10:35:54.568Z,3.78
2022-12-23T10:37:14.440Z,3.79
2022-12-23T10:38:50.931Z,3.77
2022-12-23T10:40:19.012Z,3.73
2022-12-23T10:41:45.710Z,3.53
2022-12-23T10:43:23.033Z,3.54
2022-12-23T10:45:16.969Z,3.52
2022-12-23T10:46:43.760Z,3.66
2022-12-23T10:48:14.149Z,3.57
2022-12-23T10:49:42.480Z,3.48
2022-12-23T10:51:04.520Z,3.46
2022-12-23T10:52:20.048Z,3.38
2022-12-23T10:53:42.895Z,3.35
2022-12-23T10:54:52.191Z,3.33
2022-12-23T10:55:58.632Z,3.40
2022-12-23T10:57:05.980Z,3.42
2022-12-23T10:58:18.556Z,3.36
2022-12-23T10:59:31.396Z,3.53
2022-12-23T11:00:46.528Z,3.55
2022-12-23T11:02:04.405Z,3.54
2022-12-23T11:03:24.364Z,3.48
2022-12-23T11:04:39.148Z,3.54
2022-12-23T11:05:43.920Z,3.59
2022-12-23T11:07:26.350Z,3.67
2022-12-23T11:08:24.550Z,3.75
2022-12-23T11:09:42.919Z,3.88
2022-12-23T11:10:47.914Z,3.82
2022-12-23T11:12:02.071Z,3.86
2022-12-23T11:13:05.518Z,3.90
2022-12-23T11:14:35.126Z,3.97
2022-12-23T11:15:44.447Z,4.12
2022-12-23T11:16:47.941Z,4.19
2022-12-23T11:18:06.794Z,4.10
2022-12-23T11:19:19.676Z,4.11
2022-12-23T11:20:23.475Z,3.92
2022-12-23T11:21:33.525Z,3.84
2022-12-23T11:22:47.954Z,3.82
2022-12-23T11:24:17.027Z,3.80
2022-12-23T11:25:35.676Z,3.90
2022-12-23T11:26:44.190Z,3.88
2022-12-23T11:27:48.213Z,3.78
2022-12-23T11:29:07.931Z,3.93
2022-12-23T11:30:22.660Z,3.87
2022-12-23T11:31:36.658Z,3.84
2022-12-23T11:32:46.493Z,3.88
2022-12-23T11:33:59.052Z,3.91
2022-12-23T11:35:05.502Z,3.88
2022-12-23T11:36:25.450Z,3.88
2022-12-23T11:37:43.426Z,3.82
2022-12-23T11:38:57.360Z,3.67
2022-12-23T11:40:03.762Z,3.69
2022-12-23T11:41:11.452Z,3.65
2022-12-23T11:42:26.920Z,3.75
2022-12-23T11:43:34.283Z,3.83
2022-12-23T11:44:48.735Z,3.78
2022-12-23T11:46:20.736Z,3.68
2022-12-23T11:47:39.097Z,3.58
2022-12-23T11:48:48.592Z,3.49
2022-12-23T11:50:01.883Z,3.55
2022-12-23T11:51:08.635Z,3.60
2022-12-23T11:52:22.253Z,3.47
2022-12-23T11:53:27.823Z,3.46
2022-12-23T11:54:34.685Z,3.54
2022-12-23T11:56:03.178Z,3.52
2022-12-23T11:57:22.094Z,3.58
2022-12-23T11:58:30.985Z,3.55
2022-12-23T11:59:41.487Z,3.54
2022-12-23T12:01:00.281Z,3.57
2022-12-23T12:02:15.258Z,3.58
2022-12-23T12:03:27.581Z,3.52
2022-12-23T12:04:36.152Z,3.62
2022-12-23T12:05:51.610Z,3.66
2022-12-23T12:06:56.903Z,3.66
2022-12-23T12:08:09.790Z,3.66
2022-12-23T12:09:17.946Z,3.72
2022-12-23T12:10:30.669Z,3.74
2022-12-23T12:11:47.386Z,3.74
2022-12-23T12:13:00.512Z,3.68
2022-12-23T12:14:11.421Z,3.70
2022-12-23T12:15:38.835Z,3.72
2022-12-23T12:17:01.630Z,3.68
2022-12-23T12:18:16.400Z,3.77
2022-12-23T12:19:34.801Z,3.75
2022-12-23T12:20:48.689Z,3.75
2022-12-23T12:22:03.887Z,3.78
2022-12-23T12:23:21.372Z,3.75
2022-12-23T12:24:39.867Z,3.76
2022-12-23T12:25:53.864Z,3.68
2022-12-23T12:27:09.047Z,3.69
2022-12-23T12:28:21.539Z,3.71
2022-12-23T12:29:40.576Z,3.78
2022-12-23T12:30:58.755Z,3.69
2022-12-23T12:32:12.435Z,3.63
2022-12-23T12:33:31.203Z,3.59
2022-12-23T12:34:55.278Z,3.51
2022-12-23T12:36:17.029Z,3.53
2022-12-23T12:37:38.837Z,3.58
2022-12-23T12:38:54.805Z,3.62
2022-12-23T12:40:04.247Z,3.67
2022-12-23T12:41:25.749Z,3.65
2022-12-23T12:42:43.302Z,3.67
2022-12-23T12:44:04.273Z,3.65
2022-12-23T12:45:21.357Z,3.58
2022-12-23T12:46:40.680Z,3.52
2022-12-23T12:48:18.697Z,3.56
2022-12-23T12:49:39.108Z,3.61
2022-12-23T12:50:59.742Z,3.59
2022-12-23T12:52:16.133Z,3.57
2022-12-23T12:53:23.937Z,3.57
2022-12-23T12:54:40.504Z,3.57
2022-12-23T12:55:55.744Z,3.69
2022-12-23T12:57:04.271Z,3.65
2022-12-23T12:58:23.833Z,3.61
2022-12-23T12:59:35.086Z,3.64
2022-12-23T13:01:17.356Z,3.52
2022-12-23T13:03:05.651Z,3.52
2022-12-23T13:05:05.563Z,3.53
2022-12-23T13:06:30.733Z,3.48
2022-12-23T13:07:58.352Z,3.48
2022-12-23T13:09:25.113Z,3.52
2022-12-23T13:10:45.834Z,3.55
2022-12-23T13:12:07.776Z,3.48
2022-12-23T13:13:38.828Z,3.43
2022-12-23T13:15:05.904Z,3.39
2022-12-23T13:16:32.175Z,3.41
2022-12-23T13:17:58.814Z,3.42
2022-12-23T13:19:27.693Z,3.40
2022-12-23T13:20:41.567Z,3.41
2022-12-23T13:22:02.172Z,3.48
2022-12-23T13:23:42.233Z,3.41
2022-12-23T13:25:03.686Z,3.36
2022-12-23T13:26:31.471Z,3.40
2022-12-23T13:27:51.602Z,3.42
2022-12-23T13:29:34.107Z,3.34
2022-12-23T13:30:53.920Z,3.39
2022-12-23T13:32:20.103Z,3.33
2022-12-23T13:33:43.322Z,3.22
2022-12-23T13:35:04.916Z,3.34
2022-12-23T13:36:45.184Z,3.31
2022-12-23T13:38:05.688Z,3.32
2022-12-23T13:39:41.534Z,3.33
2022-12-23T13:41:08.517Z,3.28
2022-12-23T13:42:27.470Z,3.31
2022-12-23T13:43:47.072Z,3.26
2022-12-23T13:44:51.139Z,3.28
2022-12-23T13:46:06.793Z,3.13
2022-12-23T13:47:30.749Z,3.22
2022-12-23T13:48:53.531Z,3.11
2022-12-23T13:50:18.187Z,3.19
2022-12-23T13:51:42.719Z,3.22
2022-12-23T13:53:20.747Z,3.20
2022-12-23T13:54:46.625Z,3.20
2022-12-23T13:56:10.265Z,3.29
2022-12-23T13:57:43.262Z,3.24
2022-12-23T13:58:50.361Z,3.24
2022-12-23T14:00:25.801Z,3.33
2022-12-23T14:01:49.615Z,3.32
2022-12-23T14:03:25.684Z,3.29
2022-12-23T14:04:39.287Z,3.33
2022-12-23T14:05:51.099Z,3.26
2022-12-23T14:07:01.564Z,3.25
2022-12-23T14:08:25.452Z,3.23
2022-12-23T14:09:41.032Z,3.29
2022-12-23T14:10:54.973Z,3.30
2022-12-23T14:12:23.083Z,3.23
2022-12-23T14:13:41.912Z,3.23
2022-12-23T14:15:18.021Z,3.24
2022-12-23T14:16:52.553Z,3.18
2022-12-23T14:18:30.803Z,3.14
2022-12-23T14:20:13.174Z,3.13
2022-12-23T14:21:40.534Z,3.08
2022-12-23T14:23:08.562Z,3.11
2022-12-23T14:24:47.948Z,3.06
2022-12-23T14:26:29.211Z,3.04
2022-12-23T14:27:52.947Z,3.04
2022-12-23T14:29:37.847Z,3.07
2022-12-23T14:30:48.250Z,3.07
2022-12-23T14:31:58.626Z,3.04
2022-12-23T14:33:17.711Z,3.06
2022-12-23T14:34:34.374Z,2.97
2022-12-23T14:36:00.445Z,3.05
2022-12-23T14:37:40.045Z,3.02
2022-12-23T14:39:06.192Z,2.98
2022-12-23T14:40:53.702Z,3.01
2022-12-23T14:42:05.433Z,2.96
2022-12-23T14:43:56.057Z,2.94
2022-12-23T14:45:38.103Z,2.99
2022-12-23T14:47:00.506Z,2.96
2022-12-23T14:50:43.401Z,2.86
2022-12-23T14:51:51.063Z,2.88
2022-12-23T14:53:22.596Z,2.83
2022-12-23T14:55:00.104Z,2.82
2022-12-23T14:56:31.769Z,2.86
2022-12-23T14:57:36.684Z,2.91
2022-12-23T14:59:19.488Z,2.92
2022-12-23T15:00:23.100Z,2.82
2022-12-23T15:01:41.586Z,2.86
2022-12-23T15:02:45.402Z,2.79
2022-12-23T15:04:01.363Z,2.78
2022-12-23T15:05:09.736Z,2.75
2022-12-23T15:06:24.895Z,2.80
2022-12-23T15:07:38.298Z,2.71
2022-12-23T15:08:46.395Z,2.68
2022-12-23T15:10:01.371Z,2.67
2022-12-23T15:11:09.734Z,2.62
2022-12-23T15:12:30.047Z,2.71
2022-12-23T15:13:35.264Z,2.70
2022-12-23T15:14:50.438Z,2.75
2022-12-23T15:16:01.399Z,2.78
2022-12-23T15:17:28.576Z,2.79
2022-12-23T15:18:33.047Z,2.72
2022-12-23T15:19:50.573Z,2.67
2022-12-23T15:21:03.183Z,2.69
2022-12-23T15:22:22.600Z,2.59
2022-12-23T15:23:27.997Z,2.65
2022-12-23T15:24:34.107Z,2.67
2022-12-23T15:25:49.175Z,2.70
2022-12-23T15:27:25.090Z,2.70
2022-12-23T15:28:40.343Z,2.68
2022-12-23T15:29:52.532Z,2.71
2022-12-23T15:30:58.048Z,2.73
2022-12-23T15:32:06.102Z,2.74
2022-12-23T15:33:35.456Z,2.76
2022-12-23T15:34:37.731Z,2.76
2022-12-23T15:35:44.127Z,2.78
2022-12-23T15:36:54.691Z,2.75
2022-12-23T15:38:01.784Z,2.68
2022-12-23T15:39:23.917Z,2.77
2022-12-23T15:40:31.692Z,2.73
2022-12-23T15:41:46.573Z,2.74
2022-12-23T15:42:53.541Z,2.69
2022-12-23T15:44:05.360Z,2.67
2022-12-23T15:45:37.324Z,2.61
2022-12-23T15:46:44.441Z,2.64
2022-12-23T15:47:49.107Z,2.64
2022-12-23T15:48:56.508Z,2.57
2022-12-23T15:50:02.341Z,2.67
2022-12-23T15:53:08.108Z,2.63
2022-12-23T15:54:30.070Z,2.59
2022-12-23T15:55:39.860Z,2.64
2022-12-23T15:56:55.430Z,2.59
2022-12-23T15:58:02.067Z,2.60
2022-12-23T15:59:28.992Z,2.68
2022-12-23T16:00:52.397Z,2.79
2022-12-23T16:01:59.937Z,2.74
2022-12-23T16:03:08.774Z,2.66
2022-12-23T16:04:25.646Z,2.70
2022-12-23T16:05:37.009Z,2.68
2022-12-23T16:06:42.033Z,2.70
2022-12-23T16:07:48.164Z,2.72
2022-12-23T16:09:05.152Z,2.77
2022-12-23T16:10:16.535Z,2.75
2022-12-23T16:11:25.279Z,2.80
2022-12-23T16:12:37.842Z,2.79
2022-12-23T16:13:58.036Z,2.78